This is the latest recevied weather packets stored in our database for station/object KC1IUC-15. If no packets are shown the sender has not sent any weather packets the latest 10 day(s).
| Time | Temp. | Humidity | Pressure | Rain* | Wind** | Luminosity | Snow |
|---|---|---|---|---|---|---|---|
| 1777756803 | 13.33° C | 58% | 1009.3 hPa | 0 mm | - | 363 W/m² | - |
| 1777756503 | 13.33° C | 62% | 1008.9 hPa | 0 mm | - | 241 W/m² | - |
| 1777756203 | 12.78° C | 65% | 1009.3 hPa | 0 mm | - | 392 W/m² | - |
| 1777755903 | 12.78° C | 65% | 1008.9 hPa | 0 mm | - | 213 W/m² | - |
| 1777755604 | 13.33° C | 65% | 1008.9 hPa | 0 mm | - | 163 W/m² | - |
| 1777755303 | 13.89° C | 65% | 1009.3 hPa | 0 mm | - | 160 W/m² | - |
| 1777755003 | 14.44° C | 66% | 1009.3 hPa | 0 mm | - | 161 W/m² | - |
| 1777754703 | 13.33° C | 70% | 1009.3 hPa | 0 mm | - | 276 W/m² | - |
| 1777754403 | 12.78° C | 71% | 1009.6 hPa | 0 mm | - | 269 W/m² | - |
| 1777754103 | 12.22° C | 74% | 1009.6 hPa | 0 mm | - | 210 W/m² | - |
| 1777753803 | 12.78° C | 74% | 1009.3 hPa | 0 mm | - | 121 W/m² | - |
| 1777753503 | 12.78° C | 76% | 1009.6 hPa | 0 mm | - | 170 W/m² | - |
| 1777753203 | 12.78° C | 76% | 1009.6 hPa | 0 mm | - | 158 W/m² | - |
| 1777752903 | 12.78° C | 73% | 1009.6 hPa | 0 mm | - | 129 W/m² | - |
| 1777752603 | 12.78° C | 70% | 1009.6 hPa | 0 mm | - | 137 W/m² | - |
| 1777752303 | 12.78° C | 74% | 1009.6 hPa | 0 mm | - | 185 W/m² | - |
| 1777752003 | 12.78° C | 75% | 1009.9 hPa | 0 mm | - | 227 W/m² | - |
| 1777751703 | 12.78° C | 77% | 1009.6 hPa | 0 mm | - | 211 W/m² | - |
| 1777751403 | 12.22° C | 77% | 1009.9 hPa | 0 mm | - | 260 W/m² | - |
| 1777751103 | 12.22° C | 78% | 1010.3 hPa | 0 mm | - | 165 W/m² | - |
| 1777750803 | 11.67° C | 80% | 1009.9 hPa | 0 mm | - | 269 W/m² | - |
| 1777750503 | 11.11° C | 80% | 1010.3 hPa | 0 mm | - | 311 W/m² | - |
| 1777750203 | 11.11° C | 80% | 1010.3 hPa | 0 mm | - | 303 W/m² | - |
| 1777749903 | 11.67° C | 84% | 1010.6 hPa | 0 mm | - | 181 W/m² | - |
| 1777749603 | 12.22° C | 83% | 1010.3 hPa | 0 mm | - | 113 W/m² | - |
* Rain latest hour (hover to see other rain measurements)
** Current wind speed in m/s (hover to see current wind gust speed)